Time;durP1;ratioP1;P1;durP2;ratioP2;P2;SDS_P1;SDS_P2;PMS_P1;PMS_P2;Temp;Humidity;BMP_temperature;BMP_pressure;BME280_temperature;BME280_humidity;BME280_pressure;Samples;Min_cycle;Max_cycle;Signal;HPM_P1;HPM_P2
2022/01/17 00:02:19;;;;;;;4.20;1.33;;;25.50;52.00;;;;;;5064832;28;20207;-43
2022/01/17 00:04:49;;;;;;;2.28;1.17;;;25.60;52.00;;;;;;5048999;28;20220;-52
2022/01/17 00:07:20;;;;;;;2.60;1.02;;;25.60;51.90;;;;;;5047497;28;20204;-44
2022/01/17 00:09:51;;;;;;;4.03;1.33;;;25.70;51.90;;;;;;5060644;28;20274;-51
2022/01/17 00:12:21;;;;;;;2.97;1.30;;;25.60;52.00;;;;;;5055152;28;20654;-47
2022/01/17 00:14:54;;;;;;;3.10;1.58;;;25.70;52.30;;;;;;5059574;28;20295;-55
2022/01/17 00:17:35;;;;;;;2.00;1.30;;;25.70;52.10;;;;;;5047741;28;20223;-49
2022/01/17 00:20:10;;;;;;;2.63;1.25;;;25.80;52.10;;;;;;5057155;28;20216;-42
2022/01/17 00:22:41;;;;;;;2.20;1.25;;;25.80;52.10;;;;;;5050505;28;20199;-51
2022/01/17 00:25:12;;;;;;;2.85;1.17;;;25.80;52.00;;;;;;5064942;28;20272;-41
2022/01/17 00:27:43;;;;;;;2.72;1.00;;;25.80;52.00;;;;;;5052022;28;20196;-52
2022/01/17 00:30:14;;;;;;;2.92;1.20;;;25.90;52.00;;;;;;5051933;28;20619;-44
2022/01/17 00:32:46;;;;;;;3.20;1.30;;;25.90;52.00;;;;;;5059010;28;20252;-41
2022/01/17 00:35:17;;;;;;;3.80;1.58;;;25.90;51.80;;;;;;5053395;28;20210;-48
2022/01/17 00:37:48;;;;;;;6.38;1.60;;;26.00;52.00;;;;;;5049934;28;20259;-50
2022/01/17 00:40:19;;;;;;;4.93;1.70;;;26.00;52.00;;;;;;5054351;28;20209;-42
2022/01/17 00:42:50;;;;;;;4.97;1.52;;;26.00;52.00;;;;;;5057895;28;20253;-44
2022/01/17 00:45:26;;;;;;;3.45;1.50;;;26.10;52.00;;;;;;5050478;28;20201;-44
2022/01/17 00:48:00;;;;;;;4.95;1.50;;;26.10;51.90;;;;;;5050628;28;20206;-50
2022/01/17 00:50:31;;;;;;;6.10;1.67;;;26.10;51.80;;;;;;5050964;28;20199;-52
2022/01/17 00:53:04;;;;;;;3.55;1.20;;;26.10;51.80;;;;;;5049048;28;20195;-42
2022/01/17 00:55:38;;;;;;;3.38;1.20;;;26.10;51.70;;;;;;5050617;28;20738;-50
2022/01/17 00:58:09;;;;;;;3.60;1.40;;;26.20;51.80;;;;;;5051344;28;20754;-49
2022/01/17 01:00:41;;;;;;;2.53;1.27;;;26.20;51.80;;;;;;5049546;28;20229;-47
2022/01/17 01:03:13;;;;;;;4.70;1.60;;;26.20;51.90;;;;;;5049101;28;20250;-57
2022/01/17 01:05:43;;;;;;;3.05;1.13;;;26.20;52.50;;;;;;5051066;28;21238;-54
2022/01/17 01:08:14;;;;;;;5.28;1.65;;;26.20;51.80;;;;;;5049502;28;20278;-53
2022/01/17 01:10:45;;;;;;;4.90;1.50;;;26.30;51.80;;;;;;5052472;28;20294;-50
2022/01/17 01:13:17;;;;;;;4.22;1.42;;;26.30;51.70;;;;;;5053329;28;20219;-58
2022/01/17 01:16:09;;;;;;;4.97;1.50;;;26.30;51.70;;;;;;5049255;28;20196;-46
2022/01/17 01:19:06;;;;;;;4.10;1.30;;;26.40;51.70;;;;;;5045624;28;20239;-41
2022/01/17 01:21:47;;;;;;;3.15;1.15;;;26.40;51.70;;;;;;5041024;28;20195;-49
2022/01/17 01:30:00;;;;;;;6.30;1.55;;;26.50;51.40;;;;;;5044435;28;20203;-41
2022/01/17 01:32:40;;;;;;;3.95;1.50;;;26.50;51.30;;;;;;5047924;28;20578;-50
2022/01/17 01:35:13;;;;;;;4.35;1.38;;;26.50;51.20;;;;;;5049201;28;20738;-43
2022/01/17 01:37:47;;;;;;;4.50;1.42;;;26.50;51.10;;;;;;5047510;28;20255;-47
2022/01/17 01:40:18;;;;;;;4.97;1.65;;;26.60;51.70;;;;;;5047211;28;20283;-48
2022/01/17 01:42:54;;;;;;;4.32;1.80;;;26.60;51.00;;;;;;5046982;28;20282;-49
2022/01/17 01:45:27;;;;;;;4.35;1.48;;;26.60;51.00;;;;;;5049478;28;20208;-54
2022/01/17 01:47:58;;;;;;;5.95;1.60;;;26.60;51.00;;;;;;5034139;28;20279;-40
2022/01/17 01:50:30;;;;;;;3.60;1.58;;;26.60;51.20;;;;;;5049574;28;20245;-41
2022/01/17 01:53:04;;;;;;;2.83;1.38;;;26.70;51.20;;;;;;5049389;28;20276;-49
2022/01/17 01:55:35;;;;;;;3.50;1.35;;;26.70;51.20;;;;;;5033191;28;20199;-47
2022/01/17 01:58:06;;;;;;;3.90;1.25;;;26.80;51.30;;;;;;5050220;28;20227;-44
2022/01/17 02:00:36;;;;;;;2.58;1.13;;;26.80;51.20;;;;;;5050268;28;20278;-45
2022/01/17 02:03:09;;;;;;;2.30;1.38;;;26.80;51.20;;;;;;5048015;28;20254;-45
2022/01/17 02:05:42;;;;;;;3.03;1.45;;;26.80;51.00;;;;;;5049479;28;20838;-42
2022/01/17 02:08:13;;;;;;;3.35;1.30;;;26.90;51.00;;;;;;5050189;28;20203;-41
2022/01/17 02:10:44;;;;;;;4.45;1.60;;;26.90;51.00;;;;;;5048353;28;20230;-42
2022/01/17 02:13:15;;;;;;;2.35;1.30;;;26.90;50.90;;;;;;5048288;28;20306;-40
2022/01/17 02:15:47;;;;;;;2.60;1.20;;;26.90;50.80;;;;;;5050497;28;20192;-51
2022/01/17 02:18:29;;;;;;;4.05;1.38;;;26.90;50.70;;;;;;5037367;28;20242;-47
2022/01/17 02:21:17;;;;;;;4.50;1.40;;;27.00;50.80;;;;;;5049141;28;20206;-47
2022/01/17 02:23:49;;;;;;;2.40;0.90;;;27.00;50.60;;;;;;5049285;28;20362;-40
2022/01/17 02:26:21;;;;;;;3.58;1.42;;;27.00;50.50;;;;;;5048122;28;20283;-42
2022/01/17 02:28:53;;;;;;;3.33;1.38;;;27.10;50.50;;;;;;5047156;28;20195;-40
2022/01/17 02:31:24;;;;;;;3.08;1.05;;;27.10;50.50;;;;;;5048194;28;20772;-53
2022/01/17 02:33:58;;;;;;;1.75;1.20;;;27.10;50.40;;;;;;5048362;28;20219;-46
2022/01/17 02:36:30;;;;;;;5.43;1.67;;;27.10;50.40;;;;;;5045927;28;20679;-44
2022/01/17 02:39:02;;;;;;;3.38;1.23;;;27.20;50.60;;;;;;5045172;28;20230;-41
2022/01/17 02:41:34;;;;;;;3.50;1.25;;;27.20;50.50;;;;;;5048311;28;20732;-41
2022/01/17 02:44:07;;;;;;;4.28;1.48;;;27.20;50.50;;;;;;5046779;28;20891;-43
2022/01/17 02:46:38;;;;;;;3.08;1.40;;;27.20;50.50;;;;;;5048965;28;20187;-40
2022/01/17 02:49:10;;;;;;;2.83;1.23;;;27.30;50.50;;;;;;5047705;28;20293;-40
2022/01/17 02:51:44;;;;;;;2.63;1.15;;;27.30;50.40;;;;;;5048429;28;20221;-43
2022/01/17 02:54:14;;;;;;;4.95;1.33;;;27.30;50.40;;;;;;5061424;28;20230;-45
2022/01/17 02:56:45;;;;;;;2.33;1.10;;;27.40;50.40;;;;;;5045942;28;20280;-41
2022/01/17 02:59:15;;;;;;;3.35;1.35;;;27.40;50.30;;;;;;5047937;28;20557;-52
2022/01/17 03:01:46;;;;;;;3.65;1.38;;;27.40;50.30;;;;;;5046893;28;20276;-41
2022/01/17 03:04:20;;;;;;;3.67;1.40;;;27.40;50.90;;;;;;5046860;28;20238;-45
2022/01/17 03:06:52;;;;;;;4.03;1.45;;;27.50;50.30;;;;;;5043692;28;20733;-42
2022/01/17 03:09:24;;;;;;;4.90;1.70;;;27.50;50.20;;;;;;5030987;28;20204;-42
2022/01/17 03:11:55;;;;;;;3.20;1.10;;;27.50;50.10;;;;;;5047314;28;20866;-48
2022/01/17 03:14:26;;;;;;;2.92;1.50;;;27.50;50.10;;;;;;5049753;28;20976;-41
2022/01/17 03:16:56;;;;;;;4.35;1.50;;;27.50;50.00;;;;;;5044942;28;20235;-41
2022/01/17 03:19:27;;;;;;;4.00;1.70;;;27.60;50.00;;;;;;5049223;28;20744;-40
2022/01/17 03:21:59;;;;;;;4.70;1.60;;;27.60;50.00;;;;;;5047784;28;20196;-43
2022/01/17 03:24:32;;;;;;;4.57;1.33;;;27.60;50.00;;;;;;5047484;28;20216;-47
2022/01/17 03:27:03;;;;;;;5.65;1.80;;;27.60;49.90;;;;;;5048460;28;20408;-41
2022/01/17 03:29:33;;;;;;;4.82;1.40;;;27.60;50.00;;;;;;5049308;28;20286;-48
2022/01/17 03:32:04;;;;;;;3.38;1.30;;;27.60;50.00;;;;;;5047420;28;20631;-40
2022/01/17 03:34:34;;;;;;;6.43;1.90;;;27.60;50.10;;;;;;5046673;28;20599;-40
2022/01/17 03:37:07;;;;;;;5.05;1.70;;;27.70;50.10;;;;;;5040536;28;20286;-41
2022/01/17 03:39:37;;;;;;;3.80;1.42;;;27.70;50.00;;;;;;5045307;28;20306;-48
2022/01/17 03:42:08;;;;;;;4.72;1.33;;;27.70;50.00;;;;;;5046483;28;20282;-46
2022/01/17 03:44:38;;;;;;;5.18;1.70;;;27.70;50.00;;;;;;5046913;28;20302;-45
2022/01/17 03:47:09;;;;;;;4.88;1.63;;;27.80;50.00;;;;;;5046245;28;20278;-42
2022/01/17 03:49:40;;;;;;;3.95;1.55;;;27.80;50.00;;;;;;5045593;28;20295;-42
2022/01/17 03:52:12;;;;;;;5.30;1.65;;;27.80;49.90;;;;;;5047433;28;20188;-40
2022/01/17 03:54:43;;;;;;;2.55;1.10;;;27.80;49.90;;;;;;5051934;28;20320;-48
2022/01/17 03:57:13;;;;;;;4.72;1.45;;;27.90;50.00;;;;;;5052788;28;20201;-42
2022/01/17 03:59:44;;;;;;;3.75;1.50;;;27.90;49.90;;;;;;5050058;28;20237;-51
2022/01/17 04:02:14;;;;;;;3.25;1.40;;;27.90;49.90;;;;;;5052233;28;20859;-41
2022/01/17 04:04:45;;;;;;;2.63;1.27;;;27.90;49.80;;;;;;5052135;28;20636;-51
2022/01/17 04:07:17;;;;;;;3.58;1.58;;;28.00;50.00;;;;;;5052411;28;20287;-44
2022/01/17 04:09:47;;;;;;;4.90;1.42;;;28.00;49.90;;;;;;5048776;28;20282;-47
2022/01/17 04:12:18;;;;;;;4.45;1.30;;;28.00;49.90;;;;;;5045385;28;20278;-43
2022/01/17 04:14:53;;;;;;;4.47;1.52;;;28.00;49.90;;;;;;5054315;28;20764;-47
2022/01/17 04:17:26;;;;;;;5.80;1.73;;;28.00;49.90;;;;;;5053206;28;20663;-42
2022/01/17 04:20:03;;;;;;;4.63;1.55;;;28.00;49.80;;;;;;5065461;28;20226;-41
2022/01/17 04:22:39;;;;;;;3.92;1.50;;;28.10;49.90;;;;;;5060800;28;20611;-41
2022/01/17 04:25:11;;;;;;;5.07;1.65;;;28.10;49.90;;;;;;5052125;28;20736;-50
2022/01/17 04:27:41;;;;;;;3.72;1.25;;;28.10;49.80;;;;;;5050004;28;20303;-51
2022/01/17 04:30:13;;;;;;;3.60;1.40;;;28.10;49.80;;;;;;5060667;28;20233;-57
2022/01/17 04:32:44;;;;;;;4.32;1.60;;;28.20;49.80;;;;;;5059437;28;20196;-52
2022/01/17 04:35:20;;;;;;;5.55;1.52;;;28.20;49.80;;;;;;5049118;28;20642;-49
2022/01/17 04:37:55;;;;;;;3.58;1.65;;;28.20;49.80;;;;;;5052062;28;20199;-47
2022/01/17 04:40:26;;;;;;;5.45;1.45;;;28.20;49.80;;;;;;5050779;28;20317;-52
2022/01/17 04:42:56;;;;;;;4.82;1.55;;;28.20;49.70;;;;;;5048706;28;20314;-50
2022/01/17 04:45:27;;;;;;;4.35;1.85;;;28.30;49.80;;;;;;5057806;28;20290;-47
2022/01/17 04:47:57;;;;;;;6.00;2.17;;;28.30;49.70;;;;;;5055992;28;20286;-46
2022/01/17 04:50:30;;;;;;;4.85;1.60;;;28.30;49.70;;;;;;5051571;28;20279;-52
2022/01/17 04:53:03;;;;;;;5.65;1.73;;;28.30;50.20;;;;;;5052991;28;20223;-44
2022/01/17 04:55:33;;;;;;;4.07;1.67;;;28.30;49.60;;;;;;5062517;28;20261;-41
2022/01/17 04:58:04;;;;;;;3.63;1.52;;;28.30;49.60;;;;;;5049798;28;20195;-47
2022/01/17 05:00:35;;;;;;;5.55;1.70;;;28.30;49.50;;;;;;5052290;28;20291;-54
2022/01/17 05:03:05;;;;;;;4.63;1.90;;;28.30;49.50;;;;;;5048792;28;20286;-53
2022/01/17 05:05:35;;;;;;;5.40;1.83;;;28.30;49.40;;;;;;5050076;28;20278;-41
2022/01/17 05:08:08;;;;;;;8.32;2.10;;;28.30;49.40;;;;;;5050541;28;20259;-54
2022/01/17 05:10:42;;;;;;;6.82;1.98;;;28.30;49.40;;;;;;5057201;28;20219;-52
2022/01/17 05:13:17;;;;;;;5.93;1.55;;;28.30;49.40;;;;;;5051069;28;20962;-48
2022/01/17 05:15:51;;;;;;;6.95;2.08;;;28.30;49.40;;;;;;5050973;28;20203;-50
2022/01/17 05:21:12;;;;;;;5.95;1.52;;;28.30;49.40;;;;;;5050635;28;20273;-51
2022/01/17 05:23:45;;;;;;;3.33;1.63;;;28.30;49.50;;;;;;5051977;28;20230;-43
2022/01/17 05:26:15;;;;;;;8.82;2.13;;;28.30;49.50;;;;;;5065747;28;20288;-49
2022/01/17 05:28:46;;;;;;;4.72;1.88;;;28.30;49.50;;;;;;5059982;28;20201;-48
2022/01/17 05:31:16;;;;;;;6.57;2.10;;;28.30;49.50;;;;;;5057660;28;20207;-46
2022/01/17 05:33:47;;;;;;;5.85;2.60;;;28.30;49.60;;;;;;5049946;28;20299;-44
2022/01/17 05:36:17;;;;;;;7.72;2.53;;;28.30;49.50;;;;;;5057006;28;20278;-51
2022/01/17 05:38:49;;;;;;;6.70;2.53;;;28.30;49.50;;;;;;5059110;28;20306;-52
2022/01/17 05:41:20;;;;;;;7.78;2.50;;;28.30;49.50;;;;;;5060438;28;20282;-58
2022/01/17 05:43:50;;;;;;;6.00;2.75;;;28.30;49.40;;;;;;5049055;28;20310;-57
2022/01/17 05:46:21;;;;;;;12.15;5.88;;;28.30;49.40;;;;;;5049795;28;20719;-54
2022/01/17 05:48:51;;;;;;;7.65;3.53;;;28.30;49.50;;;;;;5053922;28;20638;-45
2022/01/17 05:51:22;;;;;;;9.68;3.90;;;28.30;49.40;;;;;;5050397;28;20628;-46
2022/01/17 05:53:54;;;;;;;9.82;4.25;;;28.30;49.40;;;;;;5047089;28;20341;-41
2022/01/17 05:56:24;;;;;;;10.48;4.22;;;28.30;49.40;;;;;;5046832;28;20303;-42
2022/01/17 05:58:55;;;;;;;9.30;3.45;;;28.30;49.40;;;;;;5047890;28;20310;-42
2022/01/17 06:01:25;;;;;;;8.18;3.28;;;28.30;49.40;;;;;;5048609;28;20282;-40
2022/01/17 06:03:56;;;;;;;10.10;3.50;;;28.20;50.00;;;;;;5059064;28;20301;-41
2022/01/17 06:06:26;;;;;;;7.35;2.97;;;28.20;49.50;;;;;;5056844;28;20290;-45
2022/01/17 06:08:58;;;;;;;7.18;3.13;;;28.20;49.50;;;;;;5046984;28;20287;-40
2022/01/17 06:11:30;;;;;;;7.25;3.55;;;28.20;49.50;;;;;;5047303;28;20282;-40
2022/01/17 06:14:00;;;;;;;8.02;2.90;;;28.20;49.50;;;;;;5048142;28;20310;-40
2022/01/17 06:16:32;;;;;;;8.07;3.03;;;28.20;49.50;;;;;;5062946;28;20286;-43
2022/01/17 06:19:02;;;;;;;8.73;3.08;;;28.10;49.40;;;;;;5052475;28;20234;-46
2022/01/17 06:21:33;;;;;;;7.30;3.10;;;28.10;49.40;;;;;;5059202;28;20756;-49
2022/01/17 06:24:06;;;;;;;5.75;2.42;;;28.10;49.50;;;;;;5049008;28;20266;-42
2022/01/17 06:26:36;;;;;;;7.45;3.17;;;28.10;49.60;;;;;;5048801;28;20211;-40
2022/01/17 06:29:08;;;;;;;5.32;2.60;;;28.10;49.50;;;;;;5048196;28;20311;-42
2022/01/17 06:31:39;;;;;;;6.50;2.55;;;28.10;49.60;;;;;;5043926;28;20282;-42
2022/01/17 06:34:10;;;;;;;6.00;2.63;;;28.10;49.60;;;;;;5045268;28;20302;-40
2022/01/17 06:36:42;;;;;;;9.17;2.70;;;28.00;49.60;;;;;;4947084;28;2860643;-46
2022/01/17 06:39:14;;;;;;;7.32;2.40;;;28.00;49.60;;;;;;5047334;28;20438;-42
2022/01/17 06:41:45;;;;;;;4.70;2.13;;;28.00;49.60;;;;;;5047246;28;20286;-50
2022/01/17 06:44:15;;;;;;;5.53;2.35;;;28.00;50.30;;;;;;5046864;28;20311;-39
2022/01/17 06:46:46;;;;;;;4.72;2.05;;;28.00;49.70;;;;;;5045567;28;20279;-44
2022/01/17 06:49:16;;;;;;;5.60;2.30;;;28.00;49.70;;;;;;5047149;28;20287;-44
2022/01/17 06:51:47;;;;;;;6.28;1.90;;;28.00;49.80;;;;;;5047943;28;20287;-43
2022/01/17 06:54:19;;;;;;;8.15;2.63;;;27.90;49.80;;;;;;5044946;28;20295;-41
2022/01/17 06:56:50;;;;;;;4.93;2.00;;;27.90;49.80;;;;;;5049168;28;20291;-41
2022/01/17 06:59:20;;;;;;;6.28;2.25;;;27.90;49.90;;;;;;5047456;28;20303;-50
2022/01/17 07:01:50;;;;;;;7.70;2.40;;;27.90;50.00;;;;;;5047489;28;20230;-47
2022/01/17 07:04:21;;;;;;;7.97;2.60;;;27.90;49.90;;;;;;5046958;28;20310;-46
2022/01/17 07:06:51;;;;;;;5.22;2.20;;;27.90;50.50;;;;;;5049159;28;20290;-40
2022/01/17 07:09:24;;;;;;;5.05;2.53;;;27.90;50.00;;;;;;5047673;28;20203;-47
2022/01/17 07:11:58;;;;;;;5.93;2.40;;;27.90;50.00;;;;;;5044813;28;20291;-40
2022/01/17 07:14:29;;;;;;;5.80;2.15;;;27.90;50.00;;;;;;5046960;28;20682;-40
2022/01/17 07:17:00;;;;;;;6.22;2.47;;;27.90;50.00;;;;;;5048453;28;20199;-36
2022/01/17 07:19:31;;;;;;;8.15;2.33;;;27.90;50.00;;;;;;5048911;28;20717;-46
2022/01/17 07:22:01;;;;;;;11.20;2.53;;;27.80;49.90;;;;;;5048234;28;20642;-43
2022/01/17 07:24:33;;;;;;;9.10;2.22;;;27.80;50.00;;;;;;5047704;28;20759;-41
2022/01/17 07:27:04;;;;;;;7.18;2.53;;;27.70;50.00;;;;;;5031724;28;20290;-40
2022/01/17 07:29:40;;;;;;;6.78;2.15;;;27.70;50.10;;;;;;5053346;28;20290;-41
2022/01/17 07:32:12;;;;;;;8.65;2.67;;;27.60;50.10;;;;;;5051132;28;20287;-42
2022/01/17 07:34:43;;;;;;;10.02;2.53;;;27.60;50.10;;;;;;5052211;28;20646;-46
2022/01/17 07:37:13;;;;;;;6.35;2.28;;;27.60;50.20;;;;;;5053207;28;20234;-42
2022/01/17 07:39:45;;;;;;;9.60;2.45;;;27.60;50.30;;;;;;5054043;28;20266;-40
2022/01/17 07:42:16;;;;;;;5.97;2.10;;;27.60;50.50;;;;;;5051960;28;20270;-40
2022/01/17 07:44:53;;;;;;;8.07;2.17;;;27.50;50.60;;;;;;5052223;28;20302;-44
2022/01/17 07:47:38;;;;;;;9.32;2.33;;;27.50;50.60;;;;;;5044813;28;20203;-43
2022/01/17 07:50:12;;;;;;;8.68;2.28;;;27.50;50.60;;;;;;5050907;28;20227;-45
2022/01/17 07:52:43;;;;;;;6.60;2.38;;;27.50;50.60;;;;;;5052021;28;20283;-41
2022/01/17 07:55:16;;;;;;;6.43;2.33;;;27.50;50.70;;;;;;5045139;28;20302;-39
2022/01/17 07:57:47;;;;;;;7.13;2.25;;;27.40;50.60;;;;;;5051233;28;20286;-47
2022/01/17 08:00:20;;;;;;;6.38;2.25;;;27.40;50.60;;;;;;5051965;28;20650;-40
2022/01/17 08:02:51;;;;;;;5.55;1.85;;;27.40;50.70;;;;;;5052364;28;20191;-43
2022/01/17 08:05:22;;;;;;;6.93;2.30;;;27.40;50.70;;;;;;5050398;28;20278;-49
2022/01/17 08:07:53;;;;;;;6.68;1.90;;;27.40;50.80;;;;;;5046321;28;20195;-45
2022/01/17 08:10:25;;;;;;;6.50;2.38;;;27.30;50.70;;;;;;5051651;28;20671;-40
2022/01/17 08:12:56;;;;;;;5.68;2.22;;;27.30;50.80;;;;;;5059346;28;20297;-42
2022/01/17 08:15:26;;;;;;;7.90;2.67;;;27.30;50.80;;;;;;5057578;28;20289;-41
2022/01/17 08:17:57;;;;;;;8.07;2.50;;;27.30;50.80;;;;;;5051449;28;20294;-42
2022/01/17 08:20:29;;;;;;;7.20;2.72;;;27.30;50.90;;;;;;5050159;28;20731;-47
2022/01/17 08:23:00;;;;;;;7.63;2.38;;;27.20;50.90;;;;;;5057579;28;20686;-41
2022/01/17 08:25:32;;;;;;;6.70;2.70;;;27.20;50.80;;;;;;5051120;28;20610;-40
2022/01/17 08:28:03;;;;;;;5.28;2.42;;;27.20;50.90;;;;;;5053626;28;20722;-40
2022/01/17 08:30:33;;;;;;;8.20;2.92;;;27.20;51.00;;;;;;5056062;28;20802;-40
2022/01/17 08:33:04;;;;;;;7.63;2.90;;;27.10;50.90;;;;;;5067086;28;20267;-39
2022/01/17 08:35:34;;;;;;;8.77;3.58;;;27.10;50.90;;;;;;5053816;28;20302;-40
2022/01/17 08:38:05;;;;;;;8.27;3.22;;;27.10;51.00;;;;;;5051292;28;20211;-40
2022/01/17 08:40:37;;;;;;;9.82;3.60;;;27.00;51.10;;;;;;5050991;28;20762;-46
2022/01/17 08:43:08;;;;;;;9.50;3.20;;;27.10;51.20;;;;;;5050797;28;20287;-43
2022/01/17 08:45:38;;;;;;;9.10;2.58;;;27.00;51.20;;;;;;5050683;28;20214;-43
2022/01/17 08:48:09;;;;;;;7.38;3.17;;;27.00;51.20;;;;;;5049622;28;20283;-44
2022/01/17 08:50:40;;;;;;;9.10;3.15;;;26.90;51.20;;;;;;5051337;28;20207;-40
2022/01/17 08:53:13;;;;;;;6.18;2.88;;;26.90;51.20;;;;;;5049520;28;20600;-47
2022/01/17 08:55:47;;;;;;;9.55;3.85;;;26.90;51.30;;;;;;5059533;28;20223;-42
2022/01/17 08:58:18;;;;;;;7.72;3.22;;;26.90;51.30;;;;;;5055612;28;20282;-44
2022/01/17 09:00:49;;;;;;;7.43;3.08;;;26.90;51.30;;;;;;5048194;28;20270;-40
2022/01/17 09:03:20;;;;;;;9.13;3.28;;;26.80;51.30;;;;;;5060107;28;20319;-40
2022/01/17 09:05:51;;;;;;;6.57;2.72;;;26.80;51.30;;;;;;5058379;28;20670;-39
2022/01/17 09:08:21;;;;;;;6.60;2.90;;;26.80;51.30;;;;;;5049818;28;20278;-40
2022/01/17 09:10:56;;;;;;;6.82;3.10;;;26.70;51.20;;;;;;5051245;28;20740;-40
2022/01/17 09:13:27;;;;;;;6.80;3.03;;;26.80;51.30;;;;;;5051181;28;20250;-52
2022/01/17 09:15:58;;;;;;;7.18;3.13;;;26.70;51.20;;;;;;5048487;28;20282;-43
2022/01/17 09:18:28;;;;;;;5.72;2.97;;;26.70;51.30;;;;;;5051390;28;20290;-40
2022/01/17 09:20:59;;;;;;;5.70;3.10;;;26.70;51.30;;;;;;5049235;28;20497;-46
2022/01/17 09:23:30;;;;;;;5.53;2.50;;;26.60;51.90;;;;;;5050213;28;20310;-52
2022/01/17 09:26:02;;;;;;;5.20;2.70;;;26.60;51.30;;;;;;5053421;28;20286;-49
2022/01/17 09:28:33;;;;;;;5.68;2.70;;;26.60;51.30;;;;;;5051990;28;20747;-46
2022/01/17 09:31:03;;;;;;;5.68;2.92;;;26.50;51.30;;;;;;5049247;28;20295;-40
2022/01/17 09:33:34;;;;;;;7.95;3.10;;;26.50;51.30;;;;;;5047821;28;20225;-44
2022/01/17 09:36:04;;;;;;;7.20;2.78;;;26.50;51.30;;;;;;5050178;28;20616;-44
2022/01/17 09:38:35;;;;;;;6.15;2.80;;;26.50;51.30;;;;;;5048479;28;20385;-44
2022/01/17 09:41:07;;;;;;;4.78;2.63;;;26.40;51.30;;;;;;5052568;28;20227;-40
2022/01/17 09:43:39;;;;;;;5.43;2.42;;;26.40;51.30;;;;;;5049100;28;20306;-40
2022/01/17 09:46:09;;;;;;;4.07;2.45;;;26.40;51.20;;;;;;5057850;28;20511;-40
2022/01/17 09:48:46;;;;;;;5.38;2.67;;;26.40;51.30;;;;;;5053116;28;20223;-41
2022/01/17 09:51:31;;;;;;;5.53;2.50;;;26.30;51.30;;;;;;5046643;28;20272;-40
2022/01/17 09:54:03;;;;;;;5.20;2.47;;;26.30;51.30;;;;;;5046484;28;20218;-42
2022/01/17 09:56:38;;;;;;;4.82;2.78;;;26.30;51.20;;;;;;5045476;28;20637;-42
2022/01/17 09:59:08;;;;;;;4.03;2.58;;;26.20;51.20;;;;;;5048409;28;20278;-41
2022/01/17 10:01:39;;;;;;;5.03;2.55;;;26.20;51.20;;;;;;5055640;28;20229;-40
2022/01/17 10:04:09;;;;;;;5.15;2.50;;;26.20;51.20;;;;;;5055323;28;20230;-40
2022/01/17 10:06:40;;;;;;;4.45;2.42;;;26.20;51.20;;;;;;5049171;28;20287;-44
2022/01/17 10:09:17;;;;;;;4.75;2.30;;;26.10;51.20;;;;;;5053068;28;20603;-39
2022/01/17 10:14:44;;;;;;;5.75;2.63;;;26.10;51.20;;;;;;5125082;27;20623;-53
2022/01/17 10:17:16;;;;;;;5.20;2.80;;;26.00;51.20;;;;;;5116359;28;20228;-51
2022/01/17 10:20:00;;;;;;;4.45;2.10;;;26.00;51.20;;;;;;5115028;27;20288;-47
2022/01/17 10:22:42;;;;;;;3.88;2.13;;;26.00;51.20;;;;;;5125124;28;20197;-44
2022/01/17 10:25:27;;;;;;;5.47;2.42;;;25.90;51.20;;;;;;5115061;28;20582;-51
2022/01/17 10:28:40;;;;;;;3.58;1.85;;;26.00;51.20;;;;;;5112424;28;20212;-50
2022/01/17 10:36:57;;;;;;;4.35;2.22;;;25.80;51.00;;;;;;5116440;28;20241;-48
2022/01/17 10:39:28;;;;;;;2.97;1.90;;;25.80;51.10;;;;;;5116081;27;20280;-50
2022/01/17 10:41:58;;;;;;;5.28;2.38;;;25.80;51.10;;;;;;5121415;28;20272;-47
2022/01/17 10:44:39;;;;;;;4.65;2.13;;;25.80;51.10;;;;;;5115242;27;20216;-41
2022/01/17 10:47:29;;;;;;;4.15;2.17;;;25.70;51.10;;;;;;5116366;27;20272;-40
2022/01/17 10:50:00;;;;;;;4.47;2.00;;;25.70;51.10;;;;;;5119188;28;20284;-45
2022/01/17 10:52:34;;;;;;;4.68;2.10;;;25.70;51.10;;;;;;5116916;28;20288;-44
2022/01/17 10:55:09;;;;;;;3.63;1.95;;;25.60;51.10;;;;;;5114226;27;20347;-42
2022/01/17 10:57:41;;;;;;;4.53;2.15;;;25.60;51.20;;;;;;5122783;28;20220;-44
2022/01/17 11:00:14;;;;;;;4.65;2.03;;;25.60;51.20;;;;;;5115593;28;20189;-41
2022/01/17 11:02:48;;;;;;;4.82;2.10;;;25.50;51.20;;;;;;5115503;28;20284;-40
2022/01/17 11:05:22;;;;;;;3.95;2.30;;;25.50;51.20;;;;;;5121927;28;20271;-40
2022/01/17 11:07:53;;;;;;;4.57;2.13;;;25.50;51.20;;;;;;5114061;27;20566;-47
2022/01/17 11:10:25;;;;;;;4.00;2.10;;;25.50;51.20;;;;;;5117577;27;20295;-40
2022/01/17 11:12:58;;;;;;;3.88;2.30;;;25.50;51.30;;;;;;5121961;27;20324;-40
2022/01/17 11:15:29;;;;;;;3.25;1.92;;;25.40;51.20;;;;;;5114780;27;20280;-40
2022/01/17 11:18:05;;;;;;;2.65;1.77;;;25.40;51.20;;;;;;5114709;28;20629;-47
2022/01/17 11:20:36;;;;;;;3.58;2.15;;;25.40;51.20;;;;;;5113008;28;20281;-41
2022/01/17 11:23:07;;;;;;;3.92;1.95;;;25.40;51.20;;;;;;5102475;28;20576;-40
2022/01/17 11:25:41;;;;;;;3.55;1.88;;;25.40;51.20;;;;;;5084170;22;20778;-41
2022/01/17 11:28:14;;;;;;;3.25;1.92;;;25.30;51.20;;;;;;5050955;28;20578;-45
2022/01/17 11:30:45;;;;;;;4.93;2.58;;;25.30;51.20;;;;;;5049708;28;20198;-44
2022/01/17 11:33:17;;;;;;;3.25;2.20;;;25.30;51.90;;;;;;5048968;28;20250;-41
2022/01/17 11:35:51;;;;;;;3.88;2.20;;;25.30;51.30;;;;;;5033135;28;20678;-47
2022/01/17 11:38:26;;;;;;;3.53;1.95;;;25.30;51.30;;;;;;5032678;28;20195;-43
2022/01/17 11:40:57;;;;;;;4.90;2.30;;;25.20;51.20;;;;;;5035859;28;20626;-50
2022/01/17 11:43:33;;;;;;;4.82;2.05;;;25.30;51.40;;;;;;5032332;28;20298;-52
2022/01/17 11:46:04;;;;;;;3.50;2.00;;;25.20;51.30;;;;;;5033842;28;20786;-41
2022/01/17 11:48:37;;;;;;;3.55;2.03;;;25.20;51.40;;;;;;5039258;28;20275;-41
2022/01/17 11:51:15;;;;;;;3.72;1.95;;;25.20;51.40;;;;;;5032332;28;20287;-40
2022/01/17 11:53:48;;;;;;;3.45;1.92;;;25.20;51.40;;;;;;5032848;28;20234;-44
2022/01/17 11:56:41;;;;;;;3.25;1.90;;;25.10;51.40;;;;;;5032726;28;20195;-41
2022/01/17 11:59:39;;;;;;;3.50;1.95;;;25.10;51.40;;;;;;5028941;28;21357;-41
2022/01/17 12:02:36;;;;;;;2.75;1.70;;;25.10;51.40;;;;;;5010159;28;20234;-49
2022/01/17 12:05:42;;;;;;;2.63;1.70;;;25.10;51.40;;;;;;5029767;28;20310;-44
2022/01/17 12:08:15;;;;;;;2.20;1.70;;;25.00;51.40;;;;;;5029759;28;20428;-43
2022/01/17 12:10:52;;;;;;;4.38;1.90;;;25.00;51.40;;;;;;5028168;28;20323;-46
2022/01/17 12:13:44;;;;;;;2.67;1.73;;;25.00;51.40;;;;;;5013499;28;20311;-44
2022/01/17 12:16:22;;;;;;;3.88;1.83;;;25.00;51.40;;;;;;5026177;28;20200;-41
2022/01/17 12:19:05;;;;;;;3.42;1.70;;;24.90;51.40;;;;;;5028827;28;20678;-41
2022/01/17 12:21:40;;;;;;;4.10;1.75;;;25.00;51.50;;;;;;5028668;28;20208;-47
2022/01/17 12:24:48;;;;;;;5.55;2.08;;;24.90;51.40;;;;;;5031320;28;20211;-42
2022/01/17 12:27:21;;;;;;;3.13;1.75;;;24.90;51.50;;;;;;5023965;28;20691;-39
2022/01/17 12:29:54;;;;;;;3.78;1.85;;;24.90;51.50;;;;;;5029967;28;20296;-40
2022/01/17 12:32:52;;;;;;;2.63;1.80;;;24.90;51.50;;;;;;5030242;28;20200;-45
2022/01/17 12:35:29;;;;;;;3.83;1.98;;;24.90;51.60;;;;;;5029535;28;20254;-40
2022/01/17 12:38:12;;;;;;;3.03;1.70;;;24.90;51.60;;;;;;5021659;28;20200;-46
2022/01/17 12:40:43;;;;;;;4.10;1.92;;;24.80;51.60;;;;;;5014910;28;20193;-40
2022/01/17 12:43:16;;;;;;;3.25;1.80;;;24.80;51.60;;;;;;5014486;28;20300;-49
2022/01/17 12:45:49;;;;;;;2.58;1.60;;;24.70;51.60;;;;;;5017141;28;20292;-41
2022/01/17 12:48:22;;;;;;;3.30;1.92;;;24.70;52.20;;;;;;5027678;28;20192;-41
2022/01/17 12:50:55;;;;;;;2.42;1.63;;;24.70;51.60;;;;;;5027262;28;20902;-40
2022/01/17 12:53:29;;;;;;;2.90;1.80;;;24.70;51.60;;;;;;5027244;28;20315;-45
2022/01/17 12:56:01;;;;;;;3.88;1.65;;;24.70;51.60;;;;;;5028840;28;20278;-49
2022/01/17 12:58:32;;;;;;;4.38;1.80;;;24.70;51.50;;;;;;5030056;28;20291;-41
2022/01/17 13:01:05;;;;;;;2.63;1.50;;;24.70;51.60;;;;;;5023929;28;20236;-47
2022/01/17 13:03:37;;;;;;;3.55;1.88;;;24.70;51.60;;;;;;5014963;28;20307;-42
2022/01/17 13:06:09;;;;;;;2.28;1.55;;;24.70;51.60;;;;;;5027766;28;20231;-50
2022/01/17 13:08:44;;;;;;;3.75;1.67;;;24.70;51.60;;;;;;5027810;28;20204;-46
2022/01/17 13:11:16;;;;;;;2.42;1.50;;;24.60;51.50;;;;;;5015604;28;20210;-40
2022/01/17 13:13:51;;;;;;;3.55;1.58;;;24.60;51.60;;;;;;5025486;28;20316;-42
2022/01/17 13:16:22;;;;;;;2.70;1.63;;;24.60;51.60;;;;;;5028646;28;20546;-40
2022/01/17 13:18:54;;;;;;;2.25;1.60;;;24.50;51.60;;;;;;5034651;28;20719;-52
2022/01/17 13:21:25;;;;;;;3.17;1.67;;;24.50;51.70;;;;;;5027219;28;20641;-40
2022/01/17 13:24:01;;;;;;;2.97;1.83;;;24.50;51.60;;;;;;5021224;28;20382;-47
2022/01/17 13:26:35;;;;;;;3.10;1.92;;;24.50;51.70;;;;;;5014797;28;20205;-40
2022/01/17 13:29:09;;;;;;;2.88;1.60;;;24.50;51.70;;;;;;5014027;28;20627;-51
2022/01/17 13:31:40;;;;;;;3.88;1.75;;;24.50;51.80;;;;;;5017949;28;20287;-42
2022/01/17 13:34:16;;;;;;;2.83;1.80;;;24.40;51.70;;;;;;5028127;28;20311;-43